createdAt,value
2022-08-08T00:03:31.645Z,87.29
2022-08-08T00:08:24.551Z,88.59
2022-08-08T00:14:16.923Z,83.43
2022-08-08T00:18:23.971Z,87.84
2022-08-08T00:23:15.092Z,86.32
2022-08-08T00:28:35.250Z,85.17
2022-08-08T00:33:19.260Z,85.19
2022-08-08T00:38:16.711Z,88.16
2022-08-08T00:48:29.395Z,89.43
2022-08-08T00:53:20.492Z,89.65
2022-08-08T00:58:18.912Z,91.50
2022-08-08T01:04:01.661Z,89.60
2022-08-08T01:08:19.484Z,89.56
2022-08-08T01:13:15.060Z,90.52
2022-08-08T01:23:55.034Z,90.37
2022-08-08T01:28:11.635Z,89.40
2022-08-08T01:33:16.297Z,88.86
2022-08-08T01:38:05.358Z,89.30
2022-08-08T01:43:17.523Z,90.32
2022-08-08T01:48:23.261Z,90.00
2022-08-08T01:55:15.791Z,91.03
2022-08-08T01:58:12.999Z,89.58
2022-08-08T02:03:07.383Z,88.14
2022-08-08T02:08:05.141Z,94.65
2022-08-08T02:13:04.756Z,92.42
2022-08-08T02:18:15.991Z,89.65
2022-08-08T02:22:58.525Z,88.25
2022-08-08T02:28:05.728Z,87.14
2022-08-08T02:32:57.984Z,87.82
2022-08-08T02:38:00.572Z,87.85
2022-08-08T02:44:34.703Z,88.60
2022-08-08T02:47:58.030Z,91.87
2022-08-08T02:53:09.711Z,86.84
2022-08-08T02:57:53.876Z,89.16
2022-08-08T03:03:01.994Z,85.51
2022-08-08T03:07:57.718Z,85.61
2022-08-08T03:13:01.448Z,90.84
2022-08-08T03:18:04.470Z,92.25
2022-08-08T03:23:01.866Z,93.55
2022-08-08T03:27:46.902Z,91.48
2022-08-08T03:32:58.840Z,82.46
2022-08-08T03:38:53.233Z,83.18
2022-08-08T03:42:57.479Z,83.56
2022-08-08T03:47:47.611Z,79.85
2022-08-08T03:52:47.600Z,78.92
2022-08-08T03:58:33.740Z,78.80
2022-08-08T04:02:47.615Z,76.92
2022-08-08T04:07:42.643Z,74.38
2022-08-08T04:12:42.687Z,70.85
2022-08-08T04:17:58.508Z,66.91
2022-08-08T04:22:37.067Z,74.62
2022-08-08T04:28:34.920Z,77.90
2022-08-08T04:32:36.973Z,77.14
2022-08-08T04:37:37.877Z,68.63
2022-08-08T04:42:55.840Z,66.52
2022-08-08T04:47:36.529Z,67.80
2022-08-08T04:52:36.484Z,68.66
2022-08-08T04:57:37.086Z,68.88
2022-08-08T05:02:42.315Z,63.83
2022-08-08T05:07:42.624Z,69.10
2022-08-08T05:12:42.751Z,72.13
2022-08-08T05:17:37.307Z,68.72
2022-08-08T05:22:35.918Z,64.91
2022-08-08T05:27:33.160Z,64.85
2022-08-08T05:32:35.809Z,58.72
2022-08-08T05:37:52.341Z,63.75
2022-08-08T05:42:42.302Z,61.85
2022-08-08T05:47:25.381Z,71.72
2022-08-08T05:52:42.320Z,66.29
2022-08-08T05:58:05.554Z,62.90
2022-08-08T06:02:27.956Z,64.69
2022-08-08T06:07:48.431Z,61.21
2022-08-08T06:12:30.911Z,61.34
2022-08-08T06:17:50.530Z,64.31
2022-08-08T06:22:33.663Z,68.48
2022-08-08T06:27:21.941Z,63.19
2022-08-08T06:32:27.536Z,61.59
2022-08-08T06:37:24.955Z,58.37
2022-08-08T06:42:30.878Z,57.64
2022-08-08T06:47:22.230Z,59.36
2022-08-08T06:52:18.767Z,67.69
2022-08-08T06:57:20.930Z,55.75
2022-08-08T07:02:28.398Z,53.52
2022-08-08T07:07:17.728Z,55.88
2022-08-08T07:12:14.782Z,53.76
2022-08-08T07:17:14.575Z,55.04
2022-08-08T07:22:19.267Z,56.77
2022-08-08T07:27:22.997Z,54.36
2022-08-08T07:32:17.011Z,52.23
2022-08-08T07:37:12.078Z,54.64
2022-08-08T07:42:25.884Z,51.18
2022-08-08T07:47:38.213Z,51.15
2022-08-08T07:52:13.488Z,54.32
2022-08-08T07:57:11.627Z,58.59
2022-08-08T08:02:35.627Z,52.49
2022-08-08T08:07:31.904Z,60.89
2022-08-08T08:12:31.483Z,56.17
2022-08-08T08:17:06.186Z,53.12
2022-08-08T08:22:14.950Z,54.57
2022-08-08T08:27:10.965Z,58.11
2022-08-08T08:32:09.000Z,56.40
2022-08-08T08:37:07.536Z,59.79
2022-08-08T08:47:11.556Z,58.82
2022-08-08T08:52:06.931Z,54.21
2022-08-08T08:57:15.768Z,60.46
2022-08-08T09:02:00.451Z,56.23
2022-08-08T09:07:12.854Z,61.52
2022-08-08T09:12:07.960Z,59.40
2022-08-08T09:16:58.855Z,59.72
2022-08-08T09:22:06.240Z,62.50
2022-08-08T09:27:02.915Z,60.67
2022-08-08T09:32:02.019Z,60.29
2022-08-08T09:37:29.110Z,55.09
2022-08-08T09:42:20.241Z,58.82
2022-08-08T09:47:05.154Z,57.42
2022-08-08T09:52:01.833Z,61.01
2022-08-08T09:57:01.545Z,57.64
2022-08-08T10:02:02.365Z,59.43
2022-08-08T10:06:58.148Z,59.38
2022-08-08T10:12:26.718Z,62.87
2022-08-08T10:16:55.651Z,61.36
2022-08-08T10:21:57.536Z,63.45
2022-08-08T10:26:59.346Z,60.22
2022-08-08T10:31:57.456Z,62.61
2022-08-08T10:37:00.064Z,62.48
2022-08-08T10:42:16.375Z,62.33
2022-08-08T10:47:02.241Z,61.18
2022-08-08T10:52:07.626Z,63.31
2022-08-08T10:56:56.052Z,63.78
2022-08-08T11:01:58.377Z,60.28
2022-08-08T11:06:54.721Z,56.28
2022-08-08T11:12:12.470Z,64.95
2022-08-08T11:16:50.035Z,58.34
2022-08-08T11:21:56.455Z,61.65
2022-08-08T11:26:57.899Z,61.97
2022-08-08T11:31:51.197Z,66.52
2022-08-08T11:36:58.624Z,65.04
2022-08-08T11:41:52.793Z,60.10
2022-08-08T11:46:54.306Z,60.60
2022-08-08T11:51:53.548Z,58.41
2022-08-08T11:56:56.135Z,62.82
2022-08-08T12:01:47.502Z,59.31
2022-08-08T12:06:47.176Z,60.80
2022-08-08T12:11:43.526Z,64.50
2022-08-08T12:16:47.252Z,66.36
2022-08-08T12:20:54.533Z,63.05
2022-08-08T12:26:45.538Z,54.48
2022-08-08T12:31:54.367Z,64.52
2022-08-08T12:36:46.337Z,60.20
2022-08-08T12:41:56.833Z,60.08
2022-08-08T12:46:47.386Z,58.08
2022-08-08T12:51:53.655Z,62.63
2022-08-08T12:56:44.320Z,64.96
2022-08-08T13:01:46.419Z,65.95
2022-08-08T13:06:46.102Z,62.38
2022-08-08T13:12:19.795Z,63.83
2022-08-08T13:16:42.504Z,59.42
2022-08-08T13:21:55.358Z,61.38
2022-08-08T13:26:45.145Z,55.93
2022-08-08T13:31:41.695Z,56.77
2022-08-08T13:36:41.853Z,52.85
2022-08-08T13:41:51.898Z,51.94
2022-08-08T13:46:40.981Z,54.92
2022-08-08T13:51:41.702Z,54.97
2022-08-08T13:56:44.626Z,57.54
2022-08-08T14:01:56.604Z,56.26
2022-08-08T14:06:39.875Z,57.95
2022-08-08T14:11:42.877Z,59.39
2022-08-08T14:16:39.615Z,58.52
2022-08-08T14:21:39.481Z,58.50
2022-08-08T14:26:38.313Z,63.57
2022-08-08T14:32:10.721Z,61.14
2022-08-08T14:36:37.807Z,59.43
2022-08-08T14:41:53.343Z,58.32
2022-08-08T14:46:40.316Z,58.83
2022-08-08T14:51:52.558Z,60.19
2022-08-08T14:56:36.386Z,58.28
2022-08-08T15:01:37.691Z,60.40
2022-08-08T15:06:35.769Z,60.81
2022-08-08T15:11:43.238Z,60.38
2022-08-08T15:16:38.163Z,60.17
2022-08-08T15:21:34.479Z,59.35
2022-08-08T15:26:34.259Z,60.20
2022-08-08T15:32:04.055Z,60.27
2022-08-08T15:36:36.447Z,60.36
2022-08-08T15:41:43.696Z,58.07
2022-08-08T15:46:34.954Z,56.15
2022-08-08T15:51:35.268Z,63.10
2022-08-08T15:56:31.895Z,62.57
2022-08-08T16:01:40.496Z,61.91
2022-08-08T16:06:31.182Z,58.06
2022-08-08T16:13:14.182Z,59.86
2022-08-08T16:16:30.177Z,58.47
2022-08-08T16:21:32.813Z,57.73
2022-08-08T16:26:34.765Z,56.85
2022-08-08T16:31:28.920Z,57.62
2022-08-08T16:36:33.812Z,57.85
2022-08-08T16:41:31.449Z,61.69
2022-08-08T16:46:36.736Z,64.30
2022-08-08T16:55:01.182Z,62.81
2022-08-08T16:56:26.653Z,61.13
2022-08-08T17:01:35.478Z,56.11
2022-08-08T17:06:37.563Z,56.77
2022-08-08T17:11:28.140Z,55.93
2022-08-08T17:16:28.571Z,56.77
2022-08-08T17:21:27.579Z,59.70
2022-08-08T17:26:28.831Z,58.97
2022-08-08T17:31:44.683Z,55.03
2022-08-08T17:36:31.113Z,57.20
2022-08-08T17:41:23.152Z,56.07
2022-08-08T17:46:26.446Z,55.70
2022-08-08T17:51:22.228Z,57.45
2022-08-08T17:56:21.453Z,58.69
2022-08-08T18:01:29.911Z,59.17
2022-08-08T18:06:30.632Z,61.42
2022-08-08T18:11:20.149Z,62.85
2022-08-08T18:16:23.248Z,63.35
2022-08-08T18:21:34.493Z,60.03
2022-08-08T18:26:22.013Z,64.18
2022-08-08T18:31:18.032Z,64.29
2022-08-08T18:36:22.965Z,61.62
2022-08-08T18:41:17.115Z,63.09
2022-08-08T18:46:55.326Z,69.12
2022-08-08T18:51:42.088Z,63.84
2022-08-08T18:56:15.706Z,61.03
2022-08-08T19:02:25.426Z,60.44
2022-08-08T19:06:14.771Z,59.59
2022-08-08T19:11:17.379Z,60.88
2022-08-08T19:16:19.308Z,58.32
2022-08-08T19:21:28.041Z,57.78
2022-08-08T19:26:29.279Z,59.43
2022-08-08T19:31:12.991Z,59.80
2022-08-08T19:36:14.479Z,55.54
2022-08-08T19:41:21.235Z,63.53
2022-08-08T19:46:10.268Z,60.68
2022-08-08T19:51:13.986Z,62.42
2022-08-08T19:56:13.025Z,60.56
2022-08-08T20:01:17.235Z,59.27
2022-08-08T20:06:14.595Z,60.75
2022-08-08T20:11:08.073Z,59.69
2022-08-08T20:16:08.102Z,64.08
2022-08-08T20:21:06.394Z,62.11
2022-08-08T20:26:09.257Z,62.29
2022-08-08T20:31:05.454Z,61.37
2022-08-08T20:36:07.705Z,62.86
2022-08-08T20:41:17.845Z,63.52
2022-08-08T20:46:06.983Z,67.48
2022-08-08T20:51:04.173Z,69.64
2022-08-08T20:56:02.590Z,67.82
2022-08-08T21:01:02.048Z,70.71
2022-08-08T21:06:02.024Z,73.96
2022-08-08T21:11:04.702Z,73.14
2022-08-08T21:16:05.777Z,67.73
2022-08-08T21:20:59.769Z,64.74
2022-08-08T21:26:02.105Z,63.69
2022-08-08T21:30:58.463Z,64.57
2022-08-08T21:36:18.002Z,67.79
2022-08-08T21:40:58.469Z,69.35
2022-08-08T21:48:06.843Z,69.12
2022-08-08T21:50:56.025Z,71.55
2022-08-08T21:56:19.447Z,71.70
2022-08-08T22:00:55.231Z,70.14
2022-08-08T22:05:54.516Z,72.04
2022-08-08T22:28:03.026Z,66.06
2022-08-08T22:34:12.253Z,82.79
2022-08-08T22:38:25.280Z,84.62
2022-08-08T22:43:28.095Z,78.53
2022-08-08T22:48:26.895Z,78.26
2022-08-08T22:54:31.667Z,74.19
2022-08-08T22:58:22.305Z,78.89
2022-08-08T23:03:25.347Z,75.28
2022-08-08T23:08:24.165Z,75.49
2022-08-08T23:13:23.893Z,80.92
2022-08-08T23:18:22.643Z,83.42
2022-08-08T23:23:18.639Z,85.90
2022-08-08T23:28:18.975Z,85.80
2022-08-08T23:34:17.292Z,87.01
2022-08-08T23:38:17.237Z,86.12
2022-08-08T23:43:15.972Z,83.10
2022-08-08T23:49:06.771Z,80.29
2022-08-08T23:53:15.098Z,82.07
2022-08-08T23:58:37.642Z,82.10
